Time;durP1;ratioP1;P1;durP2;ratioP2;P2;SDS_P1;SDS_P2;PMS_P1;PMS_P2;Temp;Humidity;BMP_temperature;BMP_pressure;BME280_temperature;BME280_humidity;BME280_pressure;Samples;Min_cycle;Max_cycle;Signal;HPM_P1;HPM_P2
2021/11/22 19:33:06;;;;;;;7.95;4.93;;;;;;;-4.50;78.44;101207.09;5125185;27;20119;-70
2021/11/22 19:35:34;;;;;;;15.98;5.40;;;;;;;-4.44;78.53;101212.06;5137075;27;20023;-67
2021/11/22 19:38:00;;;;;;;8.27;4.18;;;;;;;-4.45;78.25;101211.22;5125500;27;20400;-69
2021/11/22 19:40:29;;;;;;;10.70;4.57;;;;;;;-4.50;78.92;101201.91;5123737;27;20056;-70
2021/11/22 19:42:55;;;;;;;11.38;4.82;;;;;;;-4.49;78.70;101208.78;5142141;27;20011;-68
2021/11/22 19:45:21;;;;;;;5.97;4.53;;;;;;;-4.52;78.73;101203.72;5122754;27;20079;-67
2021/11/22 19:47:47;;;;;;;10.45;5.80;;;;;;;-4.51;78.81;101205.41;5137983;27;20265;-67
2021/11/22 19:50:16;;;;;;;12.63;4.88;;;;;;;-4.52;78.83;101207.16;5122699;27;20027;-65
2021/11/22 19:52:50;;;;;;;7.15;4.47;;;;;;;-4.51;78.93;101210.59;5131332;27;20172;-67
2021/11/22 19:55:20;;;;;;;14.82;4.78;;;;;;;-4.50;79.11;101207.09;5130173;28;20027;-65
2021/11/22 19:57:49;;;;;;;11.27;5.20;;;;;;;-4.50;78.30;101217.50;5130264;28;20019;-66
2021/11/22 20:00:18;;;;;;;11.57;4.57;;;;;;;-4.70;79.22;101182.66;5112161;28;20027;-68
2021/11/22 20:02:43;;;;;;;11.77;6.10;;;;;;;-4.51;78.62;101215.81;5130943;28;20034;-69
2021/11/22 20:05:12;;;;;;;7.27;4.40;;;;;;;-4.56;78.84;101215.13;5130878;28;20024;-69
2021/11/22 20:07:37;;;;;;;7.82;5.32;;;;;;;-4.54;78.47;101218.50;5130272;28;20533;-68
2021/11/22 20:10:08;;;;;;;17.27;5.20;;;;;;;-4.59;78.87;101210.03;5130027;28;20044;-67
2021/11/22 20:12:38;;;;;;;18.02;4.85;;;;;;;-4.57;79.13;101221.22;5134433;27;20149;-66
2021/11/22 20:15:12;;;;;;;9.15;5.22;;;;;;;-4.60;78.93;101211.78;5135291;27;20118;-68
2021/11/22 20:17:40;;;;;;;11.07;6.15;;;;;;;-4.57;79.23;101222.06;5140168;27;20023;-66
2021/11/22 20:20:22;;;;;;;13.82;7.90;;;;;;;-4.58;78.90;101216.94;5143180;27;20024;-66
2021/11/22 20:22:51;;;;;;;12.98;5.65;;;;;;;-4.59;78.58;101212.63;5141266;27;20023;-67
2021/11/22 20:25:20;;;;;;;18.38;9.02;;;;;;;-4.59;79.15;101213.50;5144428;27;20046;-65
2021/11/22 20:27:47;;;;;;;15.82;7.85;;;;;;;-4.59;78.88;101223.88;5137448;27;20028;-68
2021/11/22 20:30:13;;;;;;;14.40;8.13;;;;;;;-4.63;78.47;101211.03;5129569;28;20035;-66
2021/11/22 20:32:41;;;;;;;20.20;7.47;;;;;;;-4.62;79.34;101213.59;5122276;28;20047;-69
2021/11/22 20:35:08;;;;;;;21.40;9.93;;;;;;;-4.63;79.28;101213.63;5115548;28;20432;-66
2021/11/22 20:37:46;;;;;;;16.83;8.75;;;;;;;-4.62;78.80;101228.34;5116415;28;20036;-65
2021/11/22 20:40:12;;;;;;;14.73;8.35;;;;;;;-4.63;79.23;101216.22;5097439;28;20069;-65
2021/11/22 20:42:38;;;;;;;25.50;11.13;;;;;;;-4.67;79.16;101212.91;5080530;28;20369;-66
2021/11/22 20:45:07;;;;;;;25.38;11.30;;;;;;;-4.64;78.89;101217.13;5096917;28;20023;-67
2021/11/22 20:47:34;;;;;;;21.67;10.43;;;;;;;-4.68;79.63;101219.84;5115019;28;20467;-65
2021/11/22 20:50:02;;;;;;;18.80;8.38;;;;;;;-4.65;79.31;101218.03;5115054;28;20381;-66
2021/11/22 20:52:28;;;;;;;12.77;8.48;;;;;;;-4.67;79.14;101215.50;5115206;28;20028;-66
2021/11/22 20:54:54;;;;;;;16.43;9.77;;;;;;;-4.68;79.02;101219.00;5115425;28;20455;-67
2021/11/22 20:57:19;;;;;;;14.80;7.77;;;;;;;-4.68;79.42;101219.84;5114941;28;20026;-63
2021/11/22 20:59:48;;;;;;;13.93;7.20;;;;;;;-4.74;79.48;101204.47;5116126;28;20453;-70
2021/11/22 21:02:14;;;;;;;12.85;6.30;;;;;;;-4.64;79.48;101222.31;5114807;28;20110;-67
2021/11/22 21:04:40;;;;;;;17.97;8.07;;;;;;;-4.67;79.16;101216.34;5115349;28;20161;-64
2021/11/22 21:07:08;;;;;;;24.38;8.00;;;;;;;-4.64;79.10;101219.72;5114956;28;20475;-68
2021/11/22 21:09:34;;;;;;;9.73;5.88;;;;;;;-4.69;79.29;101214.69;5116248;28;20020;-65
2021/11/22 21:12:06;;;;;;;13.27;7.33;;;;;;;-4.71;79.58;101214.75;5114659;28;20446;-69
2021/11/22 21:14:32;;;;;;;12.10;6.93;;;;;;;-4.72;79.52;101213.06;5114330;28;20264;-64
2021/11/22 21:16:58;;;;;;;11.18;6.53;;;;;;;-4.74;79.81;101214.88;5114490;28;20036;-67
2021/11/22 21:19:30;;;;;;;13.30;7.85;;;;;;;-4.72;79.58;101210.47;5114593;28;20027;-66
2021/11/22 21:22:01;;;;;;;12.32;6.53;;;;;;;-4.71;79.69;101214.75;5115051;28;20477;-65
2021/11/22 21:24:30;;;;;;;17.45;7.78;;;;;;;-4.71;79.38;101219.94;5114921;28;20028;-66
2021/11/22 21:26:55;;;;;;;19.27;9.68;;;;;;;-4.71;79.19;101222.56;5114670;28;20031;-65
2021/11/22 21:29:21;;;;;;;20.87;9.17;;;;;;;-4.72;79.26;101220.00;5114137;28;20035;-66
2021/11/22 21:31:52;;;;;;;27.70;11.80;;;;;;;-4.77;79.72;101219.31;5114304;28;20097;-67
2021/11/22 21:34:24;;;;;;;28.67;12.77;;;;;;;-4.81;80.45;101213.41;5114522;28;20032;-66
2021/11/22 21:36:53;;;;;;;21.88;10.05;;;;;;;-4.81;80.32;101213.41;5112891;28;20031;-66
2021/11/22 21:39:22;;;;;;;20.30;10.57;;;;;;;-4.75;81.13;101220.13;5114161;28;20474;-68
2021/11/22 21:41:49;;;;;;;21.23;12.77;;;;;;;-4.73;81.06;101216.56;5095987;28;20031;-65
2021/11/22 21:44:19;;;;;;;25.77;12.55;;;;;;;-4.70;81.01;101213.84;5113377;28;20034;-68
2021/11/22 21:46:46;;;;;;;25.83;12.48;;;;;;;-4.69;81.42;101215.53;5114886;28;20019;-65
2021/11/22 21:49:18;;;;;;;30.75;11.85;;;;;;;-4.71;81.52;101201.75;5077757;28;20413;-67
2021/11/22 21:51:44;;;;;;;27.80;11.43;;;;;;;-4.65;81.36;101202.44;5096134;28;20551;-65
2021/11/22 21:54:11;;;;;;;19.27;11.18;;;;;;;-4.62;81.75;101208.41;5083544;27;20121;-66
2021/11/22 21:56:39;;;;;;;16.67;10.27;;;;;;;-4.59;81.72;101212.63;5128731;27;20493;-64
2021/11/22 21:59:07;;;;;;;25.73;11.73;;;;;;;-4.62;81.55;101217.94;5112991;28;20031;-65
2021/11/22 22:02:07;;;;;;;16.75;9.68;;;;;;;-4.63;81.27;101216.22;5112746;28;20156;-70
2021/11/22 22:07:54;;;;;;;20.73;11.57;;;;;;;-4.63;82.01;101221.44;5068945;28;20036;-64
2021/11/22 22:10:25;;;;;;;16.45;10.60;;;;;;;-4.64;82.02;101209.34;5092240;28;20151;-65
2021/11/22 22:13:00;;;;;;;18.40;12.38;;;;;;;-4.63;82.45;101216.22;5091167;28;20122;-66
2021/11/22 22:15:34;;;;;;;20.38;12.57;;;;;;;-4.65;81.99;101207.63;5073361;28;20447;-68
2021/11/22 22:18:12;;;;;;;21.80;12.70;;;;;;;-4.66;83.48;101196.41;5091293;28;20040;-65
2021/11/22 22:20:41;;;;;;;24.80;12.80;;;;;;;-4.64;82.97;101198.94;5091441;28;20064;-67
2021/11/22 22:23:06;;;;;;;22.70;13.55;;;;;;;-4.61;83.02;101201.44;5089763;28;20027;-66
2021/11/22 22:25:34;;;;;;;21.03;12.83;;;;;;;-4.60;83.40;101208.34;5091088;28;20073;-65
2021/11/22 22:28:00;;;;;;;18.63;12.05;;;;;;;-4.61;82.55;101194.50;5091028;28;20066;-67
2021/11/22 22:30:25;;;;;;;17.50;12.23;;;;;;;-4.60;83.22;101197.94;5090753;28;20064;-66
2021/11/22 22:32:54;;;;;;;23.33;12.00;;;;;;;-4.59;82.25;101197.03;5090520;28;20040;-69
2021/11/22 22:35:20;;;;;;;;;;;;;;;-4.58;82.55;101198.75;5091314;28;20035;-66
2021/11/22 22:37:48;;;;;;;18.50;11.97;;;;;;;-4.67;82.27;101179.09;5092970;28;19912;-66
2021/11/22 22:40:16;;;;;;;22.77;11.80;;;;;;;-4.59;82.43;101197.03;5113455;28;20031;-65
2021/11/22 22:42:45;;;;;;;19.00;11.73;;;;;;;-4.62;83.28;101199.75;5113577;28;20051;-66
2021/11/22 22:45:11;;;;;;;19.67;12.30;;;;;;;-4.65;83.05;101197.25;5113560;28;20019;-64
2021/11/22 22:47:43;;;;;;;24.50;13.80;;;;;;;-4.69;83.16;101186.13;5113283;28;20527;-66
2021/11/22 22:50:13;;;;;;;19.42;11.27;;;;;;;-4.69;83.41;101194.75;5113160;28;20032;-67
2021/11/22 22:52:39;;;;;;;19.08;11.63;;;;;;;-4.67;82.91;101189.50;5113522;28;20035;-67
2021/11/22 22:55:05;;;;;;;21.93;12.63;;;;;;;-4.67;82.76;101195.53;5113188;28;20038;-67
2021/11/22 22:57:30;;;;;;;20.13;12.35;;;;;;;-4.66;83.31;101201.59;5113180;28;20523;-68
2021/11/22 22:59:56;;;;;;;21.27;12.17;;;;;;;-4.69;82.15;101204.31;5113026;28;20035;-65
2021/11/22 23:02:22;;;;;;;19.50;11.57;;;;;;;-4.73;82.74;101208.78;5112772;28;20355;-65
2021/11/22 23:04:47;;;;;;;22.13;14.03;;;;;;;-4.75;82.79;101201.94;5112496;28;20076;-66
2021/11/22 23:07:13;;;;;;;43.07;20.00;;;;;;;-4.78;82.97;101202.88;5113075;28;20020;-66
2021/11/22 23:09:39;;;;;;;105.27;36.97;;;;;;;-4.75;82.96;101218.38;5112671;28;20157;-65
2021/11/22 23:12:05;;;;;;;72.00;33.10;;;;;;;-4.79;83.50;101209.00;5113243;28;20031;-65
2021/11/22 23:14:32;;;;;;;48.78;23.10;;;;;;;-4.81;83.06;101209.94;5112550;28;20493;-66
2021/11/22 23:16:58;;;;;;;49.33;22.00;;;;;;;-4.78;83.70;101215.88;5112644;28;20084;-64
2021/11/22 23:19:24;;;;;;;48.20;21.30;;;;;;;-4.77;83.88;101209.78;5112368;28;20031;-65
2021/11/22 23:21:50;;;;;;;30.80;16.57;;;;;;;-4.76;83.62;101208.03;5112257;28;20035;-66
2021/11/22 23:24:16;;;;;;;36.58;19.25;;;;;;;-4.74;82.73;101207.06;5112417;28;20474;-64
2021/11/22 23:26:42;;;;;;;31.67;14.43;;;;;;;-4.74;82.51;101207.06;5112773;28;20046;-65
2021/11/22 23:29:08;;;;;;;25.52;13.95;;;;;;;-4.73;83.16;101203.56;5112482;28;20076;-64
2021/11/22 23:31:35;;;;;;;26.93;14.53;;;;;;;-4.75;82.66;101197.59;5112452;28;20047;-64
2021/11/22 23:34:01;;;;;;;26.10;15.63;;;;;;;-4.67;82.87;101203.34;5112198;28;20039;-66
2021/11/22 23:36:27;;;;;;;22.15;14.20;;;;;;;-4.67;83.23;101192.09;5112159;28;20060;-64
2021/11/22 23:39:00;;;;;;;23.83;14.47;;;;;;;-4.65;83.20;101197.25;5112210;28;20062;-64
2021/11/22 23:41:30;;;;;;;27.33;14.57;;;;;;;-4.63;82.36;101190.25;5112266;28;20051;-63
2021/11/22 23:43:56;;;;;;;28.95;16.52;;;;;;;-4.67;82.86;101192.09;5094069;28;20028;-66
2021/11/22 23:46:22;;;;;;;26.70;15.90;;;;;;;-4.66;83.01;101196.41;5112594;28;20026;-66
2021/11/22 23:48:47;;;;;;;25.13;15.30;;;;;;;-4.67;83.60;101197.31;5112151;28;20036;-66
2021/11/22 23:51:13;;;;;;;23.67;14.27;;;;;;;-4.64;82.90;101202.38;5112386;28;20068;-66
2021/11/22 23:53:38;;;;;;;27.63;15.13;;;;;;;-4.63;83.13;101195.44;5112110;28;20027;-63
2021/11/22 23:56:07;;;;;;;30.93;16.53;;;;;;;-4.63;83.25;101195.44;5112173;28;20041;-64
2021/11/22 23:58:33;;;;;;;;;;;;;;;-4.60;82.93;101195.34;5112565;28;20028;-66
